Santa Fe Municipal Airport
KSAF : now visible

Airfield :











YOU CAN JOIN US ON...

 
LOGIN :

Register | Disclaimer

   EN    FR    IT 

 









Legend :    VFR   Marginal VFR   IFR   Intensive IFR   Very Intensive IFR
Visi :
Ceiling :
>= 8 km
>= 3000ft
5 to 8 km
1000 to 3000 ft
1500m to 5 km
500 to 1000 ft
800 to 1500m
200 to 500 ft
< 800m
< 200 ft
Symbols :   Thunderstorms  Fog  Heavy snow  Heavy precipitations  Wind > 20 kt






- Airport Elevation : 6348 ft


KSAF - Santa Fe Municipal

CURRENT METAR :
  • 232253Z AUTO 24018G25KT 10SM CLR 18/M08 A3001 RMK AO2 SLP097 T01781078 PNO

EXPIRED METARs :
  • 232153Z 24010KT 10SM CLR 19/M07 A3002 RMK AO2 SLP097 T01941072 PNO
  • 232053Z 25010KT 10SM CLR 17/M07 A3004 RMK AO2 SLP113 6//// T01721067 56021 PNO

TAF KSAF
Valid from the 23 at 18:00 until the 24 at 18:00 UTC


231736Z 2318/2418 35012KT P6SM SCT200
FM232000 27010KT P6SM BKN200
FM240100 32007KT P6SM SCT200
FM240600 11014G22KT P6SM BKN120
FM241200 14011KT P6SM VCSH OVC050
TEMPO 2414/2418 4SM -SN OVC020



MET'MAP, your aeronautical weather chart ! - Copyright ORBIFLY December 2007 - Disclaimer

ORBIFLY MET'MAP TEAM :

Programming & Development : Alexandra Zaïnal
Concept & Development : Baudouin d'Aumeries
Co-Development & Prog : Marc-Olivier Méhu
Technical & hardware support : Manuel Goepfert

Contact : metmap@orbifly.com




SOURCES & CREDITS :

   NOAA       Earth
Advisory